Time;durP1;ratioP1;P1;durP2;ratioP2;P2;SDS_P1;SDS_P2;PMS_P1;PMS_P2;Temp;Humidity;BMP_temperature;BMP_pressure;BME280_temperature;BME280_humidity;BME280_pressure;Samples;Min_cycle;Max_cycle;Signal;HPM_P1;HPM_P2
2022/05/31 00:00:13;;;;;;;2.28;2.15;;;;;;;6.00;99.92;101348.34;1045253;28;20331;-76
2022/05/31 00:00:45;;;;;;;5.32;2.45;;;;;;;6.14;99.67;101352.91;1046579;28;20310;-77
2022/05/31 00:01:17;;;;;;;2.60;2.05;;;;;;;6.10;99.50;101346.34;1046324;28;20689;-76
2022/05/31 00:01:50;;;;;;;2.45;2.15;;;;;;;5.88;99.72;101340.78;1043540;28;20306;-76
2022/05/31 00:02:23;;;;;;;5.18;3.17;;;;;;;5.81;99.95;101341.66;1043598;28;20299;-77
2022/05/31 00:02:56;;;;;;;3.42;2.55;;;;;;;5.84;99.75;101344.78;1038919;28;20308;-76
2022/05/31 00:03:27;;;;;;;3.35;2.13;;;;;;;5.92;100.00;101341.28;1031429;28;20661;-76
2022/05/31 00:03:59;;;;;;;3.90;2.88;;;;;;;5.93;100.00;101345.59;1032019;28;20444;-75
2022/05/31 00:04:31;;;;;;;2.65;2.47;;;;;;;5.92;100.00;101340.47;1036405;28;20309;-77
2022/05/31 00:05:03;;;;;;;2.80;2.45;;;;;;;5.88;99.96;101343.44;1039583;28;20280;-77
2022/05/31 00:05:36;;;;;;;4.35;3.47;;;;;;;5.82;100.00;101343.31;1039440;28;20327;-76
2022/05/31 00:06:08;;;;;;;2.40;2.22;;;;;;;5.80;100.00;101345.31;1040053;28;20300;-76
2022/05/31 00:06:39;;;;;;;3.20;2.47;;;;;;;6.02;100.00;101341.91;1042153;28;20292;-77
2022/05/31 00:07:11;;;;;;;3.95;2.40;;;;;;;6.08;100.00;101335.09;1038579;28;20293;-76
2022/05/31 00:07:43;;;;;;;3.10;2.22;;;;;;;6.00;99.86;101340.41;1041457;28;20419;-77
2022/05/31 00:08:14;;;;;;;2.95;2.28;;;;;;;5.79;100.00;101346.31;1045666;28;20298;-76
2022/05/31 00:08:46;;;;;;;5.78;2.60;;;;;;;5.90;99.59;101340.66;1043130;28;20781;-76
2022/05/31 00:09:18;;;;;;;2.80;2.30;;;;;;;5.84;100.00;101331.56;1044153;28;20299;-76
2022/05/31 00:09:49;;;;;;;2.97;2.35;;;;;;;5.75;100.00;101344.97;1043965;28;20303;-76
2022/05/31 00:10:21;;;;;;;4.63;2.63;;;;;;;5.92;100.00;101336.00;1043937;28;20298;-76
2022/05/31 00:10:52;;;;;;;5.13;2.75;;;;;;;6.02;100.00;101330.50;1043594;28;20306;-77
2022/05/31 00:11:24;;;;;;;4.55;2.60;;;;;;;6.12;100.00;101331.94;1043901;28;20793;-76
2022/05/31 00:11:57;;;;;;;2.97;2.40;;;;;;;5.94;99.91;101333.19;1043703;28;20287;-76
2022/05/31 00:12:28;;;;;;;5.13;2.60;;;;;;;5.96;99.68;101332.03;1046788;28;20703;-76
2022/05/31 00:13:00;;;;;;;2.25;2.05;;;;;;;6.06;99.77;101339.75;1043360;28;20341;-76
2022/05/31 00:13:32;;;;;;;2.65;2.45;;;;;;;6.08;99.93;101335.09;1040181;28;20296;-77
2022/05/31 00:14:05;;;;;;;3.53;2.63;;;;;;;6.12;99.64;101336.41;1046194;28;20696;-77
2022/05/31 00:14:37;;;;;;;8.15;2.17;;;;;;;5.89;99.68;101331.91;1046242;28;20307;-76
2022/05/31 00:15:11;;;;;;;2.67;2.10;;;;;;;6.04;99.78;101333.81;1047974;28;20294;-77
2022/05/31 00:15:42;;;;;;;5.07;2.67;;;;;;;6.06;99.79;101331.81;1045887;28;20309;-77
2022/05/31 00:16:14;;;;;;;3.65;2.67;;;;;;;6.13;99.80;101327.47;1046138;28;20310;-76
2022/05/31 00:16:47;;;;;;;7.35;2.85;;;;;;;6.01;99.56;101329.66;1043771;28;20287;-76
2022/05/31 00:17:19;;;;;;;2.97;2.67;;;;;;;5.83;99.87;101331.75;1040005;28;20296;-76
2022/05/31 00:17:51;;;;;;;5.43;2.78;;;;;;;5.89;99.67;101329.25;1042529;28;20303;-75
2022/05/31 00:18:23;;;;;;;6.10;2.15;;;;;;;6.05;99.89;101324.88;1043634;28;20361;-76
2022/05/31 00:18:54;;;;;;;3.38;2.90;;;;;;;5.88;99.78;101327.56;1041167;28;20303;-76
2022/05/31 00:19:26;;;;;;;5.88;3.55;;;;;;;5.74;99.67;101323.00;1044401;28;20326;-76
2022/05/31 00:19:58;;;;;;;2.55;2.35;;;;;;;5.87;100.00;101331.22;1043706;28;20385;-77
2022/05/31 00:20:30;;;;;;;2.95;2.75;;;;;;;5.79;100.00;101318.06;1041854;28;20310;-75
2022/05/31 00:21:02;;;;;;;2.90;2.70;;;;;;;5.75;100.00;101322.03;1031687;28;20297;-76
2022/05/31 00:21:38;;;;;;;3.83;2.60;;;;;;;5.88;100.00;101319.66;1033838;28;20718;-76
2022/05/31 00:22:31;;;;;;;4.45;3.03;;;;;;;5.88;99.88;101324.94;1034974;28;20340;-75
2022/05/31 00:23:03;;;;;;;2.90;2.65;;;;;;;5.97;100.00;101327.56;1047659;28;20777;-75
2022/05/31 00:23:35;;;;;;;2.95;2.70;;;;;;;5.97;100.00;101319.63;1043504;28;20366;-76
2022/05/31 00:24:10;;;;;;;2.60;2.40;;;;;;;5.89;99.97;101331.91;1042709;28;20306;-76
2022/05/31 00:24:41;;;;;;;3.42;2.72;;;;;;;5.69;100.00;101325.34;1037623;28;20292;-75
2022/05/31 00:25:14;;;;;;;2.90;2.65;;;;;;;5.75;100.00;101324.69;1038143;28;20832;-77
2022/05/31 00:25:46;;;;;;;3.60;2.33;;;;;;;5.93;100.00;101323.63;1039312;28;20304;-76
2022/05/31 00:26:18;;;;;;;3.25;2.58;;;;;;;5.94;100.00;101319.97;1029785;28;20301;-76
2022/05/31 00:26:50;;;;;;;3.00;2.55;;;;;;;5.85;100.00;101320.00;1030481;28;20298;-76
2022/05/31 00:27:40;;;;;;;3.10;2.80;;;;;;;5.92;100.00;101319.31;1034989;28;20339;-76
2022/05/31 00:28:12;;;;;;;2.78;2.58;;;;;;;6.01;100.00;101328.84;1037364;28;20304;-76
2022/05/31 00:28:44;;;;;;;6.68;3.25;;;;;;;6.01;99.83;101319.09;1040019;28;20778;-76
2022/05/31 00:29:16;;;;;;;3.63;2.88;;;;;;;5.87;100.00;101323.28;1042415;28;20305;-76
2022/05/31 00:29:47;;;;;;;2.47;2.28;;;;;;;5.83;100.00;101327.28;1038692;28;20293;-76
2022/05/31 00:30:19;;;;;;;5.80;2.80;;;;;;;5.92;100.00;101325.44;1047302;28;20898;-76
2022/05/31 00:30:51;;;;;;;4.03;2.65;;;;;;;6.00;99.77;101329.84;1047340;28;20298;-76
2022/05/31 00:31:23;;;;;;;6.28;3.00;;;;;;;6.08;100.00;101324.53;1043693;28;20310;-76
2022/05/31 00:31:55;;;;;;;7.00;3.13;;;;;;;6.07;99.60;101320.25;1039302;28;20713;-76
2022/05/31 00:32:30;;;;;;;4.53;3.40;;;;;;;5.94;99.87;101319.97;1039234;28;20758;-76
2022/05/31 00:33:02;;;;;;;4.93;2.28;;;;;;;5.96;100.00;101331.19;1036836;28;20391;-76
2022/05/31 00:33:34;;;;;;;2.75;2.53;;;;;;;6.01;99.34;101321.75;1040515;28;20788;-76
2022/05/31 00:34:07;;;;;;;2.78;2.58;;;;;;;5.96;99.73;101328.56;1041717;28;20303;-77
2022/05/31 00:34:44;;;;;;;4.90;2.85;;;;;;;6.03;99.44;101322.41;1035694;28;20380;-76
2022/05/31 00:35:23;;;;;;;3.88;2.67;;;;;;;5.70;99.22;101327.00;1038619;28;20829;-76
2022/05/31 00:35:54;;;;;;;2.88;2.55;;;;;;;5.61;99.11;101328.03;1039782;28;20848;-76
2022/05/31 00:36:26;;;;;;;3.47;2.90;;;;;;;5.54;99.57;101322.63;1039219;28;20320;-76
2022/05/31 00:36:58;;;;;;;4.22;2.58;;;;;;;5.63;99.88;101326.03;1039056;28;20446;-76
2022/05/31 00:37:31;;;;;;;8.48;3.05;;;;;;;5.55;100.00;101323.44;1036796;28;20288;-76
2022/05/31 00:38:03;;;;;;;3.00;2.70;;;;;;;5.60;100.00;101323.75;1037523;28;20296;-76
2022/05/31 00:38:35;;;;;;;2.55;2.20;;;;;;;5.52;100.00;101326.44;1036572;28;20311;-76
2022/05/31 00:39:06;;;;;;;2.67;2.47;;;;;;;5.70;100.00;101324.34;1037388;28;20304;-76
2022/05/31 00:39:39;;;;;;;5.72;2.97;;;;;;;5.84;100.00;101323.63;1041687;28;20310;-76
2022/05/31 00:40:13;;;;;;;3.95;2.97;;;;;;;5.85;100.00;101325.28;1041797;28;20295;-76
2022/05/31 00:40:45;;;;;;;3.17;2.88;;;;;;;5.83;100.00;101327.28;1040919;28;20305;-76
2022/05/31 00:41:23;;;;;;;2.90;2.70;;;;;;;5.78;100.00;101323.50;1039096;28;20414;-76
2022/05/31 00:41:57;;;;;;;3.20;2.20;;;;;;;5.80;100.00;101322.34;1033871;28;20311;-76
2022/05/31 00:42:46;;;;;;;3.53;2.58;;;;;;;5.86;100.00;101329.56;1032440;28;20304;-76
2022/05/31 00:43:22;;;;;;;3.33;3.13;;;;;;;5.97;100.00;101333.66;1036308;28;20611;-75
2022/05/31 00:44:04;;;;;;;3.15;2.40;;;;;;;5.84;100.00;101331.56;1038135;28;20299;-76
2022/05/31 00:44:37;;;;;;;6.80;2.95;;;;;;;5.73;100.00;101325.81;1036708;28;20809;-76
2022/05/31 00:45:09;;;;;;;3.90;2.50;;;;;;;5.74;100.00;101323.00;1041819;28;20400;-76
2022/05/31 00:45:46;;;;;;;4.00;2.50;;;;;;;5.79;100.00;101331.28;1043929;28;20299;-76
2022/05/31 00:46:20;;;;;;;2.47;2.28;;;;;;;5.80;100.00;101324.97;1043568;28;20376;-76
2022/05/31 00:46:58;;;;;;;3.30;2.92;;;;;;;5.83;100.00;101324.63;1043926;28;20303;-76
2022/05/31 00:47:32;;;;;;;3.60;2.83;;;;;;;5.91;100.00;101331.72;1039692;28;20656;-76
2022/05/31 00:48:10;;;;;;;2.63;2.13;;;;;;;6.02;100.00;101330.50;1031355;28;20341;-75
2022/05/31 00:48:47;;;;;;;3.53;2.30;;;;;;;6.03;100.00;101322.41;1032667;28;20358;-76
2022/05/31 00:49:31;;;;;;;2.60;2.33;;;;;;;5.94;100.00;101325.25;1036879;28;20810;-75
2022/05/31 00:50:07;;;;;;;2.22;2.13;;;;;;;5.84;100.00;101323.63;1041432;28;20300;-75
2022/05/31 00:50:48;;;;;;;2.38;2.17;;;;;;;5.76;100.00;101320.22;1043407;28;20288;-76
2022/05/31 00:51:20;;;;;;;;;;;;;;;5.64;100.00;101326.88;1042469;28;20662;-76
2022/05/31 00:51:54;;;;;;;5.80;2.60;;;;;;;5.84;100.00;101322.81;1040682;28;19921;-76
2022/05/31 00:52:32;;;;;;;4.30;2.40;;;;;;;5.74;100.00;101323.00;1044113;28;20294;-76
2022/05/31 00:53:09;;;;;;;2.63;2.40;;;;;;;5.97;100.00;101322.25;1041170;28;20749;-76
2022/05/31 00:53:45;;;;;;;2.90;2.25;;;;;;;6.06;100.00;101326.53;1043823;28;20856;-75
2022/05/31 00:54:19;;;;;;;3.30;2.42;;;;;;;6.16;100.00;101316.53;1046582;28;20299;-76
2022/05/31 00:55:00;;;;;;;2.33;1.95;;;;;;;6.20;100.00;101320.47;1037935;28;20323;-76
2022/05/31 00:55:38;;;;;;;3.10;2.38;;;;;;;5.87;100.00;101323.28;1042976;28;20314;-76
2022/05/31 00:56:14;;;;;;;3.20;2.35;;;;;;;5.92;100.00;101321.97;1034146;28;20388;-76
2022/05/31 00:56:47;;;;;;;3.25;2.45;;;;;;;5.76;100.00;101320.22;1033231;28;20333;-76
2022/05/31 00:57:20;;;;;;;3.10;2.22;;;;;;;5.89;100.00;101326.59;1032265;28;20803;-77
2022/05/31 00:58:13;;;;;;;2.80;2.60;;;;;;;5.92;100.00;101320.16;1032204;28;20356;-76
2022/05/31 00:58:48;;;;;;;2.90;2.40;;;;;;;5.74;100.00;101327.47;1037855;28;20305;-76
2022/05/31 00:59:23;;;;;;;4.20;2.90;;;;;;;5.61;100.00;101317.47;1044236;28;20828;-75
2022/05/31 00:59:57;;;;;;;3.53;2.17;;;;;;;5.60;100.00;101321.09;1039980;28;20292;-76
2022/05/31 01:00:29;;;;;;;3.10;2.20;;;;;;;5.72;100.00;101324.19;1043346;28;20303;-76
2022/05/31 01:01:04;;;;;;;3.03;2.47;;;;;;;5.73;100.00;101325.81;1045703;28;20292;-76
2022/05/31 01:01:39;;;;;;;3.17;2.60;;;;;;;5.73;100.00;101324.00;1044226;28;20314;-76
2022/05/31 01:02:11;;;;;;;2.72;2.50;;;;;;;5.83;100.00;101319.34;1045903;28;20302;-76
2022/05/31 01:02:45;;;;;;;4.80;2.40;;;;;;;5.89;100.00;101321.31;1041824;28;20296;-75
2022/05/31 01:03:19;;;;;;;3.22;2.80;;;;;;;5.86;100.00;101321.63;1043863;28;20309;-76
2022/05/31 01:03:51;;;;;;;4.10;2.35;;;;;;;5.76;100.00;101318.41;1038559;28;20296;-76
2022/05/31 01:04:31;;;;;;;5.50;3.05;;;;;;;5.78;100.00;101320.88;1038364;28;20299;-75
2022/05/31 01:05:05;;;;;;;3.33;2.28;;;;;;;5.79;100.00;101322.50;1034036;28;20297;-76
2022/05/31 01:05:37;;;;;;;5.90;2.42;;;;;;;5.96;100.00;101315.34;1037995;28;20707;-76
2022/05/31 01:06:12;;;;;;;5.45;2.75;;;;;;;6.08;100.00;101319.25;1036375;28;20699;-75
2022/05/31 01:06:43;;;;;;;2.22;2.03;;;;;;;5.88;100.00;101319.66;1035714;28;20711;-75
2022/05/31 01:07:17;;;;;;;3.38;2.60;;;;;;;5.81;100.00;101317.88;1037402;28;20570;-75
2022/05/31 01:07:48;;;;;;;3.83;3.00;;;;;;;5.69;100.00;101320.06;1039403;28;20865;-75
2022/05/31 01:08:22;;;;;;;3.05;2.85;;;;;;;5.74;100.00;101320.38;1044141;28;20299;-76
2022/05/31 01:09:12;;;;;;;5.38;2.50;;;;;;;6.08;100.00;101319.25;1040313;28;20386;-75
2022/05/31 01:09:47;;;;;;;3.58;2.65;;;;;;;6.15;100.00;101320.19;1043462;28;20291;-75
2022/05/31 01:10:54;;;;;;;2.60;2.40;;;;;;;5.98;100.00;101318.63;1033849;28;20296;-75
2022/05/31 01:11:48;;;;;;;2.83;2.55;;;;;;;6.07;100.00;101312.31;1036325;28;20315;-75
2022/05/31 01:12:44;;;;;;;5.28;2.22;;;;;;;5.93;100.00;101320.97;1040655;28;20921;-75
2022/05/31 01:13:34;;;;;;;3.25;2.45;;;;;;;5.82;100.00;101315.06;1043969;28;20322;-75
2022/05/31 01:14:06;;;;;;;4.18;2.17;;;;;;;5.80;100.00;101322.34;1045316;28;20379;-75
2022/05/31 01:14:56;;;;;;;2.60;2.30;;;;;;;5.95;100.00;101316.34;1048069;28;20364;-75
2022/05/31 01:15:47;;;;;;;2.58;2.38;;;;;;;5.81;100.00;101313.41;1044139;28;20442;-75
2022/05/31 01:17:00;;;;;;;3.88;2.60;;;;;;;5.85;100.00;101317.34;1042248;28;20867;-75
2022/05/31 01:17:50;;;;;;;3.03;2.50;;;;;;;5.80;100.00;101306.47;1042746;28;20410;-75
2022/05/31 01:18:31;;;;;;;5.97;2.70;;;;;;;5.78;100.00;101316.41;1043898;28;20323;-74
2022/05/31 01:20:17;;;;;;;3.13;2.92;;;;;;;6.02;100.00;101309.34;1033681;28;20046;-75
2022/05/31 01:20:56;;;;;;;3.13;2.60;;;;;;;6.04;100.00;101315.31;1035866;28;20810;-74
2022/05/31 01:21:38;;;;;;;3.35;2.70;;;;;;;5.86;100.00;101311.06;1026227;28;20863;-75
2022/05/31 01:22:40;;;;;;;3.10;2.80;;;;;;;5.83;100.00;101311.41;1030067;28;20306;-75
2022/05/31 01:23:15;;;;;;;7.47;2.92;;;;;;;5.78;100.00;101303.19;1032002;28;20317;-75
2022/05/31 01:23:57;;;;;;;3.58;2.90;;;;;;;5.99;100.00;101310.50;1033997;28;20384;-75
2022/05/31 01:24:31;;;;;;;3.55;3.20;;;;;;;5.98;100.00;101319.44;1037154;28;20327;-75
2022/05/31 01:25:11;;;;;;;8.10;3.95;;;;;;;5.79;99.86;101315.41;1038623;28;20794;-75
2022/05/31 01:26:34;;;;;;;8.20;3.53;;;;;;;5.67;100.00;101313.31;1038729;28;20288;-75
2022/05/31 01:27:14;;;;;;;4.60;2.85;;;;;;;5.42;100.00;101323.16;1039167;28;20820;-75
2022/05/31 01:28:03;;;;;;;3.85;3.30;;;;;;;5.57;100.00;101316.16;1040857;28;20316;-75
2022/05/31 01:28:50;;;;;;;3.38;3.08;;;;;;;5.48;100.00;101311.91;1037298;28;20792;-75
2022/05/31 01:29:30;;;;;;;3.33;2.60;;;;;;;5.48;100.00;101317.19;1037473;28;20813;-74
2022/05/31 01:30:05;;;;;;;3.15;2.85;;;;;;;5.63;100.00;101320.75;1039729;28;20343;-75
2022/05/31 01:31:22;;;;;;;2.97;2.75;;;;;;;5.72;100.00;101319.72;1036770;28;20050;-75
2022/05/31 01:32:02;;;;;;;3.17;2.45;;;;;;;5.58;100.00;101320.47;1032511;28;20405;-75
2022/05/31 01:32:39;;;;;;;3.55;2.95;;;;;;;5.56;100.00;101319.81;1036902;28;20304;-75
2022/05/31 01:33:30;;;;;;;3.90;3.33;;;;;;;5.47;100.00;101312.88;1033227;28;20042;-75
2022/05/31 01:34:22;;;;;;;4.18;2.65;;;;;;;5.30;100.00;101314.78;1033442;28;20711;-75
2022/05/31 01:35:08;;;;;;;3.85;2.95;;;;;;;5.29;100.00;101321.06;1037412;28;20299;-76
2022/05/31 01:35:40;;;;;;;4.60;2.80;;;;;;;5.42;100.00;101317.88;1036656;28;20308;-75
2022/05/31 01:36:23;;;;;;;3.95;3.22;;;;;;;5.42;100.00;101317.88;1036153;28;20303;-76
2022/05/31 01:36:56;;;;;;;2.92;2.72;;;;;;;5.36;100.00;101319.38;1037794;28;20366;-75
2022/05/31 01:37:40;;;;;;;5.60;2.75;;;;;;;5.33;100.00;101318.91;1034346;28;20301;-75
2022/05/31 01:38:24;;;;;;;5.20;3.50;;;;;;;5.21;100.00;101327.19;1039112;28;20307;-75
2022/05/31 01:39:10;;;;;;;5.72;3.30;;;;;;;5.18;100.00;101316.94;1039734;28;20796;-76
2022/05/31 01:39:47;;;;;;;2.70;2.50;;;;;;;5.35;100.00;101316.91;1037771;28;20315;-75
2022/05/31 01:40:26;;;;;;;4.45;2.88;;;;;;;5.38;100.00;101316.56;1032104;28;20290;-75
2022/05/31 01:41:06;;;;;;;5.50;3.00;;;;;;;5.35;100.00;101316.91;1038333;28;20294;-75
2022/05/31 01:41:40;;;;;;;17.30;3.47;;;;;;;5.28;100.00;101312.31;1046892;28;20290;-75
2022/05/31 01:42:31;;;;;;;5.78;3.22;;;;;;;5.21;100.00;101315.81;1051130;28;20051;-75
2022/05/31 01:43:02;;;;;;;5.07;3.38;;;;;;;5.17;100.00;101320.56;1049693;28;20646;-75
2022/05/31 01:43:34;;;;;;;7.45;3.30;;;;;;;5.18;100.00;101322.22;1047005;28;20041;-75
2022/05/31 01:44:08;;;;;;;2.67;2.53;;;;;;;5.09;100.00;101323.25;1036019;28;20299;-76
2022/05/31 01:44:43;;;;;;;7.05;2.92;;;;;;;5.14;100.00;101320.91;1031627;28;20370;-75
2022/05/31 01:45:27;;;;;;;10.93;3.65;;;;;;;5.13;100.00;101323.72;1030304;28;20313;-75
2022/05/31 01:46:07;;;;;;;3.67;3.08;;;;;;;5.30;100.00;101321.88;1034781;28;20316;-76
2022/05/31 01:46:39;;;;;;;4.45;3.60;;;;;;;5.26;100.00;101321.41;1042087;28;20292;-75
2022/05/31 01:47:12;;;;;;;6.05;3.38;;;;;;;5.40;100.00;101317.22;1037155;28;20041;-75
2022/05/31 01:47:44;;;;;;;4.15;2.90;;;;;;;5.33;100.00;101316.25;1030660;28;20820;-75
2022/05/31 01:48:16;;;;;;;4.95;3.22;;;;;;;5.23;100.00;101324.38;1032556;28;20301;-75
2022/05/31 01:48:48;;;;;;;7.65;3.47;;;;;;;5.16;100.00;101313.66;1034895;28;20313;-76
2022/05/31 01:49:20;;;;;;;6.45;3.10;;;;;;;5.11;100.00;101323.91;1031623;28;20739;-75
2022/05/31 01:49:53;;;;;;;3.47;3.17;;;;;;;5.16;100.00;101321.56;1032796;28;22437;-75
2022/05/31 01:50:25;;;;;;;3.70;3.08;;;;;;;5.28;100.00;101325.50;1040088;28;20299;-76
2022/05/31 01:50:57;;;;;;;5.20;3.30;;;;;;;5.40;100.00;101319.84;1041303;28;20300;-75
2022/05/31 01:51:29;;;;;;;4.95;3.53;;;;;;;5.24;100.00;101320.75;1039263;28;20311;-75
2022/05/31 01:52:02;;;;;;;13.82;3.63;;;;;;;5.25;100.00;101322.38;1036606;28;20309;-75
2022/05/31 01:52:34;;;;;;;5.60;3.15;;;;;;;5.46;100.00;101313.88;1035418;28;20308;-75
2022/05/31 01:53:07;;;;;;;12.70;3.95;;;;;;;5.48;100.00;101317.19;1035356;28;20375;-75
2022/05/31 01:53:39;;;;;;;10.40;3.55;;;;;;;5.32;100.00;101318.06;1032449;28;20304;-75
2022/05/31 01:54:13;;;;;;;10.10;3.47;;;;;;;5.20;100.00;101319.41;1038332;28;20300;-76
2022/05/31 01:54:46;;;;;;;7.55;3.72;;;;;;;5.21;100.00;101321.91;1038362;28;20304;-75
2022/05/31 01:55:18;;;;;;;16.45;3.55;;;;;;;5.07;100.00;101314.66;1038220;28;20304;-75
2022/05/31 01:55:50;;;;;;;13.88;4.22;;;;;;;4.97;100.00;101324.59;1034058;28;20301;-75
2022/05/31 01:56:22;;;;;;;19.52;4.70;;;;;;;5.03;100.00;101316.00;1033536;28;20309;-75
2022/05/31 01:56:59;;;;;;;9.48;3.20;;;;;;;5.21;100.00;101321.91;1032278;28;20306;-76
2022/05/31 01:57:32;;;;;;;8.27;3.75;;;;;;;5.31;100.00;101315.59;1033769;28;20397;-76
2022/05/31 01:58:05;;;;;;;5.18;2.70;;;;;;;5.18;100.00;101322.22;1039151;28;20308;-75
2022/05/31 01:58:40;;;;;;;4.75;3.47;;;;;;;5.24;100.00;101316.28;1037131;28;20313;-76
2022/05/31 01:59:12;;;;;;;9.30;3.63;;;;;;;5.26;100.00;101318.75;1032819;28;20324;-75
2022/05/31 01:59:49;;;;;;;21.70;5.22;;;;;;;5.41;100.00;101313.56;1028957;28;20313;-75
2022/05/31 02:00:21;;;;;;;14.15;5.05;;;;;;;5.48;100.00;101311.91;1032198;28;20294;-75
2022/05/31 02:00:53;;;;;;;19.63;5.57;;;;;;;5.54;100.00;101316.50;1035989;28;20301;-75
2022/05/31 02:01:26;;;;;;;18.70;4.60;;;;;;;5.60;100.00;101313.19;1038080;28;20795;-75
2022/05/31 02:01:59;;;;;;;18.90;4.70;;;;;;;5.65;100.00;101312.66;1043312;28;20299;-75
2022/05/31 02:02:31;;;;;;;10.85;4.05;;;;;;;5.59;100.00;101314.19;1036955;28;20304;-75
2022/05/31 02:03:05;;;;;;;7.63;4.75;;;;;;;5.56;100.00;101314.53;1041098;28;20844;-75
2022/05/31 02:03:39;;;;;;;13.93;4.82;;;;;;;5.63;100.00;101320.75;1040660;28;20354;-75
2022/05/31 02:04:14;;;;;;;7.22;4.50;;;;;;;5.63;100.00;101315.47;1035192;28;20372;-75
2022/05/31 02:04:47;;;;;;;8.52;4.50;;;;;;;5.74;100.00;101312.44;1034225;28;20312;-75
2022/05/31 02:05:19;;;;;;;7.55;4.00;;;;;;;5.75;100.00;101324.69;1033848;28;20352;-75
2022/05/31 02:05:53;;;;;;;4.13;3.72;;;;;;;5.77;100.00;101314.75;1035169;28;20296;-76
2022/05/31 02:06:31;;;;;;;6.15;3.78;;;;;;;5.76;100.00;101318.41;1032482;28;20333;-75
2022/05/31 02:07:15;;;;;;;6.90;3.67;;;;;;;5.82;100.00;101312.41;1031822;28;20321;-75
2022/05/31 02:07:54;;;;;;;4.47;3.13;;;;;;;5.61;100.00;101320.09;1031607;28;20382;-75
2022/05/31 02:08:29;;;;;;;6.07;3.50;;;;;;;5.56;100.00;101315.34;1033568;28;20302;-75
2022/05/31 02:09:04;;;;;;;9.25;3.67;;;;;;;5.75;100.00;101306.19;1039415;28;20296;-75
2022/05/31 02:09:37;;;;;;;3.00;2.80;;;;;;;5.73;100.00;101313.44;1038571;28;20296;-75
2022/05/31 02:10:09;;;;;;;3.47;3.17;;;;;;;5.63;99.83;101310.19;1037378;28;20363;-75
2022/05/31 02:10:49;;;;;;;3.42;3.13;;;;;;;5.62;99.89;101313.81;1037909;28;20395;-75
2022/05/31 02:11:22;;;;;;;6.82;3.60;;;;;;;5.62;99.74;101313.00;1037774;28;20112;-76
2022/05/31 02:11:57;;;;;;;3.45;3.15;;;;;;;5.72;99.43;101314.44;1037975;28;20301;-76
2022/05/31 02:12:32;;;;;;;4.40;4.00;;;;;;;5.70;99.38;101310.31;1036862;28;20304;-76
2022/05/31 02:13:25;;;;;;;5.80;3.20;;;;;;;5.69;99.38;101309.50;1036633;28;20292;-75
2022/05/31 02:14:17;;;;;;;3.20;2.90;;;;;;;5.71;99.29;101311.97;1042395;28;20381;-75
2022/05/31 02:14:50;;;;;;;7.38;3.40;;;;;;;5.72;99.42;101313.59;1039805;28;20366;-76
2022/05/31 02:15:23;;;;;;;5.60;3.20;;;;;;;5.75;98.99;101302.69;1039382;28;20339;-75
2022/05/31 02:16:15;;;;;;;4.68;3.35;;;;;;;5.77;99.19;101306.81;1036013;28;20287;-75
2022/05/31 02:16:47;;;;;;;3.58;3.28;;;;;;;5.81;99.05;101312.59;1037869;28;20722;-75
2022/05/31 02:17:38;;;;;;;3.63;3.17;;;;;;;5.82;99.02;101309.78;1045275;28;20330;-76
2022/05/31 02:19:48;;;;;;;3.85;3.00;;;;;;;5.84;98.56;101306.94;1043027;28;20577;-75
2022/05/31 02:20:39;;;;;;;4.20;2.90;;;;;;;5.87;98.91;101315.34;1044967;28;22362;-75
2022/05/31 02:21:10;;;;;;;5.35;3.65;;;;;;;5.87;98.42;101312.72;1046126;28;20040;-75
2022/05/31 02:21:42;;;;;;;3.78;3.47;;;;;;;5.87;98.26;101310.06;1043935;28;20796;-75
2022/05/31 02:22:18;;;;;;;3.55;3.25;;;;;;;5.84;98.27;101322.81;1045691;28;20306;-75
2022/05/31 02:22:50;;;;;;;5.30;3.25;;;;;;;5.84;98.83;101313.06;1042264;28;20300;-75
2022/05/31 02:23:21;;;;;;;3.17;2.80;;;;;;;5.89;98.37;101316.03;1043746;28;20350;-75
2022/05/31 02:23:53;;;;;;;3.95;3.42;;;;;;;5.89;98.69;101304.59;1041922;28;20299;-76
2022/05/31 02:24:25;;;;;;;3.80;3.40;;;;;;;5.96;98.98;101304.75;1047861;28;20291;-75
2022/05/31 02:24:58;;;;;;;4.13;3.72;;;;;;;5.95;98.50;101308.41;1042066;28;20398;-76
2022/05/31 02:25:29;;;;;;;3.63;3.33;;;;;;;5.94;98.41;101312.88;1039356;28;20385;-75
2022/05/31 02:26:01;;;;;;;8.75;4.07;;;;;;;5.91;98.52;101313.22;1035412;28;20340;-76
2022/05/31 02:26:34;;;;;;;6.45;4.55;;;;;;;5.88;98.23;101311.72;1032831;28;20316;-75
2022/05/31 02:27:07;;;;;;;6.45;3.75;;;;;;;5.89;98.17;101313.38;1042178;28;20298;-75
2022/05/31 02:27:38;;;;;;;5.32;4.15;;;;;;;5.92;98.19;101308.75;1035171;28;20841;-75
2022/05/31 02:28:10;;;;;;;4.05;3.65;;;;;;;5.96;98.23;101310.03;1036140;28;20308;-75
2022/05/31 02:28:42;;;;;;;4.38;3.95;;;;;;;5.95;98.26;101308.41;1031514;28;20298;-75
2022/05/31 02:29:16;;;;;;;4.50;4.18;;;;;;;5.84;98.34;101312.25;1032406;28;20301;-75
2022/05/31 02:29:47;;;;;;;4.30;3.38;;;;;;;5.65;98.15;101310.84;1036249;28;20304;-75
2022/05/31 02:30:19;;;;;;;3.72;3.45;;;;;;;5.55;97.93;101313.69;1036441;28;20295;-76
2022/05/31 02:30:50;;;;;;;4.10;3.72;;;;;;;5.47;98.16;101310.25;1038067;28;20302;-75
2022/05/31 02:31:23;;;;;;;3.92;3.30;;;;;;;5.36;98.46;101305.34;1038298;28;21401;-75
2022/05/31 02:31:57;;;;;;;3.58;3.28;;;;;;;5.24;98.60;101310.19;1038131;28;20303;-75
2022/05/31 02:32:28;;;;;;;5.35;3.78;;;;;;;5.09;98.90;101312.69;1034679;28;20365;-75
2022/05/31 02:33:00;;;;;;;5.03;4.07;;;;;;;4.96;99.06;101313.22;1040440;28;20306;-76
2022/05/31 02:33:31;;;;;;;4.40;3.38;;;;;;;4.91;99.43;101309.41;1039960;28;20303;-76
2022/05/31 02:34:04;;;;;;;4.43;4.03;;;;;;;5.06;99.83;101315.66;1036328;28;20301;-76
2022/05/31 02:34:42;;;;;;;4.38;4.07;;;;;;;5.11;100.00;101309.88;1046869;28;20298;-76
2022/05/31 02:35:14;;;;;;;4.03;3.53;;;;;;;4.99;100.00;101312.06;1040486;28;20733;-75
2022/05/31 02:35:46;;;;;;;4.72;3.95;;;;;;;4.91;100.00;101310.22;1035799;28;20319;-75
2022/05/31 02:36:21;;;;;;;8.05;3.67;;;;;;;4.82;100.00;101318.34;1037630;28;20309;-75
2022/05/31 02:36:54;;;;;;;5.47;4.00;;;;;;;4.80;100.00;101315.03;1040571;28;20848;-75
2022/05/31 02:37:26;;;;;;;4.70;3.97;;;;;;;4.87;100.00;101319.47;1042881;28;20821;-75
2022/05/31 02:37:58;;;;;;;4.40;4.10;;;;;;;4.97;100.00;101320.16;1034048;28;20337;-75
2022/05/31 02:38:30;;;;;;;4.28;3.88;;;;;;;4.96;100.00;101315.03;1031925;28;20314;-75
2022/05/31 02:39:02;;;;;;;4.10;3.80;;;;;;;5.11;100.00;101302.78;1040329;28;20299;-76
2022/05/31 02:39:40;;;;;;;6.40;4.10;;;;;;;5.05;100.00;101310.56;1045043;28;20370;-75
2022/05/31 02:40:12;;;;;;;4.07;3.78;;;;;;;5.01;100.00;101315.34;1047841;28;20294;-75
2022/05/31 02:40:43;;;;;;;4.60;4.10;;;;;;;4.92;100.00;101311.88;1047930;28;20305;-76
2022/05/31 02:41:15;;;;;;;5.63;4.32;;;;;;;4.83;100.00;101312.88;1043983;28;20364;-75
2022/05/31 02:41:47;;;;;;;4.97;4.57;;;;;;;4.87;100.00;101310.72;1043669;28;20291;-75
2022/05/31 02:42:19;;;;;;;5.63;4.20;;;;;;;4.92;100.00;101311.06;1037583;28;20656;-76
2022/05/31 02:42:51;;;;;;;5.20;4.70;;;;;;;4.93;100.00;101310.06;1034278;28;20305;-76
2022/05/31 02:43:22;;;;;;;6.63;4.40;;;;;;;5.07;100.00;101309.38;1032052;28;20341;-75
2022/05/31 02:43:55;;;;;;;4.75;4.35;;;;;;;5.20;100.00;101309.69;1038430;28;20299;-75
2022/05/31 02:44:27;;;;;;;5.05;4.65;;;;;;;5.38;100.00;101306.00;1036042;28;20855;-75
2022/05/31 02:44:59;;;;;;;7.63;4.70;;;;;;;5.35;100.00;101307.16;1035261;28;20660;-75
2022/05/31 02:45:31;;;;;;;5.03;4.63;;;;;;;5.39;100.00;101307.63;1037796;28;20299;-75
2022/05/31 02:46:03;;;;;;;6.03;4.78;;;;;;;5.33;100.00;101309.16;1035509;28;20305;-75
2022/05/31 02:46:35;;;;;;;5.18;4.57;;;;;;;5.24;100.00;101308.38;1038063;28;20303;-75
2022/05/31 02:47:08;;;;;;;5.63;4.70;;;;;;;5.40;100.00;101309.28;1035672;28;20308;-75
2022/05/31 02:47:40;;;;;;;5.70;4.70;;;;;;;5.52;100.00;101305.28;1034466;28;20388;-75
2022/05/31 02:48:12;;;;;;;5.28;4.72;;;;;;;5.53;100.00;101309.59;1032790;28;20391;-75
2022/05/31 02:48:44;;;;;;;5.47;4.97;;;;;;;5.40;100.00;101304.81;1037757;28;20659;-75
2022/05/31 02:49:16;;;;;;;6.22;4.70;;;;;;;5.47;100.00;101311.06;1037916;28;20296;-75
2022/05/31 02:49:48;;;;;;;7.70;5.15;;;;;;;5.41;100.00;101306.47;1047208;28;20303;-75